createdAt,value
2022-11-16T00:01:57.828Z,4.33
2022-11-16T00:07:21.096Z,4.30
2022-11-16T00:12:44.111Z,4.30
2022-11-16T00:18:07.448Z,4.29
2022-11-16T00:23:30.212Z,4.30
2022-11-16T00:28:53.008Z,4.29
2022-11-16T00:34:15.672Z,4.29
2022-11-16T00:39:38.932Z,4.29
2022-11-16T00:45:02.159Z,4.30
2022-11-16T00:50:25.569Z,4.30
2022-11-16T00:55:50.037Z,4.30
2022-11-16T01:01:15.122Z,4.31
2022-11-16T01:06:37.898Z,4.31
2022-11-16T01:12:13.161Z,4.33
2022-11-16T01:17:35.902Z,4.33
2022-11-16T01:22:59.206Z,4.31
2022-11-16T01:28:22.100Z,4.31
2022-11-16T01:33:44.762Z,4.32
2022-11-16T01:39:07.465Z,4.31
2022-11-16T01:44:51.541Z,4.30
2022-11-16T01:50:18.971Z,4.31
2022-11-16T01:55:43.212Z,4.29
2022-11-16T02:01:06.556Z,4.28
2022-11-16T02:07:05.099Z,4.28
2022-11-16T02:12:51.970Z,4.27
2022-11-16T02:18:53.702Z,4.24
2022-11-16T02:24:48.990Z,4.24
2022-11-16T02:30:12.516Z,4.25
2022-11-16T02:35:50.761Z,4.25
2022-11-16T02:41:17.578Z,4.25
2022-11-16T02:46:46.480Z,4.26
2022-11-16T02:52:10.927Z,4.25
2022-11-16T02:58:00.478Z,4.26
2022-11-16T03:04:02.797Z,4.27
2022-11-16T03:09:35.858Z,4.27
2022-11-16T03:15:05.695Z,4.30
2022-11-16T03:20:37.044Z,4.31
2022-11-16T03:26:02.468Z,4.33
2022-11-16T03:31:35.399Z,4.31
2022-11-16T03:37:01.079Z,4.31
2022-11-16T03:42:26.146Z,4.30
2022-11-16T03:47:49.032Z,4.30
2022-11-16T03:53:11.456Z,4.31
2022-11-16T03:58:34.010Z,4.31
2022-11-16T04:03:57.513Z,4.35
2022-11-16T04:09:39.022Z,4.37
2022-11-16T04:15:20.054Z,4.39
2022-11-16T04:21:00.206Z,4.40
2022-11-16T04:26:25.993Z,4.40
2022-11-16T04:32:05.811Z,4.38
2022-11-16T04:37:49.385Z,4.31
2022-11-16T04:43:15.556Z,4.24
2022-11-16T04:48:39.642Z,4.25
2022-11-16T04:54:02.742Z,4.29
2022-11-16T04:59:26.632Z,4.32
2022-11-16T05:04:50.805Z,4.33
2022-11-16T05:10:15.149Z,4.33
2022-11-16T05:15:38.723Z,4.34
2022-11-16T05:21:03.893Z,4.31
2022-11-16T05:26:27.759Z,4.28
2022-11-16T05:31:51.890Z,4.26
2022-11-16T05:37:15.659Z,4.25
2022-11-16T05:42:38.731Z,4.26
2022-11-16T05:48:04.295Z,4.27
2022-11-16T05:53:28.943Z,4.29
2022-11-16T05:58:53.310Z,4.31
2022-11-16T06:04:24.331Z,4.30
2022-11-16T06:09:47.347Z,4.30
2022-11-16T06:15:12.078Z,4.29
2022-11-16T06:20:36.790Z,4.31
2022-11-16T06:26:01.849Z,4.30
2022-11-16T06:31:26.679Z,4.27
2022-11-16T06:36:51.199Z,4.30
2022-11-16T06:42:15.614Z,4.29
2022-11-16T06:47:38.386Z,4.30
2022-11-16T06:53:02.399Z,4.30
2022-11-16T06:58:25.068Z,4.36
2022-11-16T07:03:49.563Z,4.42
2022-11-16T07:09:14.473Z,4.50
2022-11-16T07:14:39.825Z,4.51
2022-11-16T07:20:02.057Z,4.55
2022-11-16T07:25:24.559Z,4.58
2022-11-16T07:30:49.385Z,4.54
2022-11-16T07:36:17.382Z,4.50
2022-11-16T07:41:39.660Z,4.51
2022-11-16T07:47:02.055Z,4.51
2022-11-16T07:52:26.123Z,4.51
2022-11-16T07:57:53.117Z,4.53
2022-11-16T08:03:14.843Z,4.54
2022-11-16T08:08:38.625Z,4.52
2022-11-16T08:14:03.290Z,4.52
2022-11-16T08:19:25.886Z,4.54
2022-11-16T08:24:48.120Z,4.59
2022-11-16T08:30:11.401Z,4.63
2022-11-16T08:35:34.747Z,4.61
2022-11-16T08:40:57.767Z,4.57
2022-11-16T08:46:20.676Z,4.56
2022-11-16T08:51:45.837Z,4.54
2022-11-16T08:57:08.000Z,4.54
2022-11-16T09:02:30.193Z,4.50
2022-11-16T09:07:53.117Z,4.42
2022-11-16T09:13:15.417Z,4.40
2022-11-16T09:18:38.332Z,4.38
2022-11-16T09:24:04.020Z,4.39
2022-11-16T09:29:28.661Z,4.44
2022-11-16T09:34:54.096Z,4.49
2022-11-16T09:40:16.781Z,4.57
2022-11-16T09:46:08.788Z,4.59
2022-11-16T09:51:34.881Z,4.64
2022-11-16T09:57:01.094Z,4.72
2022-11-16T10:02:43.985Z,4.74
2022-11-16T10:08:23.143Z,4.79
2022-11-16T10:14:08.335Z,4.77
2022-11-16T10:19:50.331Z,4.94
2022-11-16T10:25:34.954Z,4.92
2022-11-16T10:31:08.511Z,4.89
2022-11-16T10:36:33.605Z,4.97
2022-11-16T10:42:03.194Z,4.88
2022-11-16T10:47:33.896Z,4.73
2022-11-16T10:52:55.440Z,4.71
2022-11-16T10:58:20.648Z,4.78
2022-11-16T11:03:44.496Z,4.86
2022-11-16T11:09:08.407Z,4.87
2022-11-16T11:14:34.025Z,4.84
2022-11-16T11:19:57.956Z,4.83
2022-11-16T11:25:33.133Z,4.76
2022-11-16T11:31:01.241Z,4.73
2022-11-16T11:36:30.529Z,4.66
2022-11-16T11:42:12.182Z,4.53
2022-11-16T11:48:01.041Z,4.49
2022-11-16T11:53:34.333Z,4.44
2022-11-16T11:59:01.301Z,4.42
2022-11-16T12:05:00.378Z,4.48
2022-11-16T12:11:00.638Z,4.45
2022-11-16T12:16:43.100Z,4.49
2022-11-16T12:22:18.743Z,4.39
2022-11-16T12:28:17.638Z,4.21
2022-11-16T12:33:44.822Z,4.16
2022-11-16T12:39:36.184Z,4.11
2022-11-16T12:45:32.849Z,4.04
2022-11-16T12:51:31.416Z,3.96
2022-11-16T12:57:24.552Z,3.86
2022-11-16T13:03:20.159Z,3.86
2022-11-16T13:09:14.188Z,3.74
2022-11-16T13:14:47.204Z,3.64
2022-11-16T13:20:55.459Z,3.61
2022-11-16T13:26:29.012Z,3.57
2022-11-16T13:32:08.674Z,3.64
2022-11-16T13:37:54.220Z,3.49
2022-11-16T13:43:25.770Z,3.44
2022-11-16T13:48:54.093Z,3.33
2022-11-16T13:54:44.658Z,3.25
2022-11-16T13:59:48.890Z,3.08
2022-11-16T14:05:25.067Z,2.91
2022-11-16T14:11:01.327Z,2.90
2022-11-16T14:16:54.807Z,2.81
2022-11-16T14:22:46.275Z,2.69
2022-11-16T14:28:33.390Z,2.67
2022-11-16T14:33:58.983Z,2.57
2022-11-16T14:39:44.704Z,2.46
2022-11-16T14:45:17.752Z,2.44
2022-11-16T14:50:41.191Z,2.35
2022-11-16T14:56:14.990Z,2.34
2022-11-16T15:01:44.119Z,2.28
2022-11-16T15:07:11.479Z,2.20
2022-11-16T15:12:46.154Z,2.14
2022-11-16T15:18:16.164Z,2.14
2022-11-16T15:23:39.059Z,2.08
2022-11-16T15:29:02.655Z,2.05
2022-11-16T15:34:26.014Z,2.01
2022-11-16T15:39:50.350Z,1.98
2022-11-16T15:45:16.814Z,1.94
2022-11-16T15:50:41.051Z,1.92
2022-11-16T15:56:05.021Z,1.90
2022-11-16T16:01:29.392Z,1.84
2022-11-16T16:07:04.445Z,1.83
2022-11-16T16:12:40.060Z,1.84
2022-11-16T16:18:04.709Z,1.83
2022-11-16T16:23:35.770Z,1.82
2022-11-16T16:28:58.975Z,1.77
2022-11-16T16:34:23.344Z,1.72
2022-11-16T16:39:45.654Z,1.69
2022-11-16T16:45:10.857Z,1.57
2022-11-16T16:50:33.039Z,1.55
2022-11-16T16:55:55.790Z,1.49
2022-11-16T17:01:19.784Z,1.43
2022-11-16T17:06:46.240Z,1.40
2022-11-16T17:12:06.631Z,1.40
2022-11-16T17:17:28.892Z,1.38
2022-11-16T17:22:51.624Z,1.37
2022-11-16T17:28:13.811Z,1.40
2022-11-16T17:33:37.772Z,1.39
2022-11-16T17:39:00.001Z,1.39
2022-11-16T17:44:23.107Z,1.40
2022-11-16T17:49:46.449Z,1.40
2022-11-16T17:55:08.627Z,1.40
2022-11-16T18:00:31.539Z,1.41
2022-11-16T18:05:53.785Z,1.38
2022-11-16T18:11:24.643Z,1.38
2022-11-16T18:16:48.606Z,1.39
2022-11-16T18:22:12.272Z,1.35
2022-11-16T18:27:36.666Z,1.34
2022-11-16T18:33:01.055Z,1.31
2022-11-16T18:38:25.791Z,1.33
2022-11-16T18:43:51.708Z,1.31
2022-11-16T18:49:17.202Z,1.30
2022-11-16T18:54:40.066Z,1.29
2022-11-16T19:00:04.017Z,1.31
2022-11-16T19:05:28.729Z,1.35
2022-11-16T19:10:53.918Z,1.36
2022-11-16T19:16:18.916Z,1.37
2022-11-16T19:21:43.591Z,1.40
2022-11-16T19:27:08.538Z,1.45
2022-11-16T19:32:32.848Z,1.49
2022-11-16T19:37:58.241Z,1.51
2022-11-16T19:43:22.648Z,1.52
2022-11-16T19:48:47.975Z,1.52
2022-11-16T19:54:15.024Z,1.54
2022-11-16T19:59:39.579Z,1.54
2022-11-16T20:05:04.072Z,1.60
2022-11-16T20:10:27.630Z,1.58
2022-11-16T20:15:50.535Z,1.60
2022-11-16T20:21:15.354Z,1.61
2022-11-16T20:26:43.215Z,1.60
2022-11-16T20:32:05.375Z,1.59
2022-11-16T20:37:28.173Z,1.58
2022-11-16T20:42:50.623Z,1.59
2022-11-16T20:48:14.634Z,1.58
2022-11-16T20:53:38.680Z,1.60
2022-11-16T20:59:03.338Z,1.60
2022-11-16T21:04:26.067Z,1.61
2022-11-16T21:10:07.979Z,1.60
2022-11-16T21:15:30.175Z,1.60
2022-11-16T21:20:53.040Z,1.61
2022-11-16T21:26:20.037Z,1.61
2022-11-16T21:31:44.854Z,1.61
2022-11-16T21:37:07.169Z,1.61
2022-11-16T21:42:30.152Z,1.59
2022-11-16T21:47:52.435Z,1.57
2022-11-16T21:53:15.182Z,1.58
2022-11-16T21:58:37.490Z,1.56
2022-11-16T22:04:17.237Z,1.54
2022-11-16T22:09:39.611Z,1.52
2022-11-16T22:15:02.323Z,1.52
2022-11-16T22:20:25.860Z,1.48
2022-11-16T22:25:50.028Z,1.46
2022-11-16T22:31:24.759Z,1.46
2022-11-16T22:36:49.264Z,1.43
2022-11-16T22:42:12.486Z,1.42
2022-11-16T22:47:36.321Z,1.41
2022-11-16T22:53:00.343Z,1.40
2022-11-16T22:58:22.984Z,1.38
2022-11-16T23:03:47.396Z,1.37
2022-11-16T23:09:11.091Z,1.38
2022-11-16T23:14:52.591Z,1.36
2022-11-16T23:20:33.502Z,1.36
2022-11-16T23:26:14.479Z,1.33
2022-11-16T23:31:37.001Z,1.32
2022-11-16T23:37:01.276Z,1.34
2022-11-16T23:42:42.094Z,1.34
2022-11-16T23:48:05.271Z,1.35
2022-11-16T23:53:29.240Z,1.36
2022-11-16T23:58:51.909Z,1.38
